Air Resources Laboratory banner image
Air Resources Laboratory web site National Oceanic and Atmospheric Administration (NOAA)

ak metar


PAAQ 161553Z 11003KT 10SM FEW045 BKN080 12/08 A2987 RMK AO2 SLP116 T01220083=
PABA 161552Z AUTO 00000KT 9SM -RA BKN002 OVC009 05/04 A2962 RMK AO2 SLP014
 P0003 T00500044 TSNO=
PABE 161553Z 23010KT 2SM BR OVC007 09/08 A2998 RMK AO2 SLP153 P0001 T00890083=
PABI 161553Z 23008KT 10SM -RA BKN033 OVC050 11/10 A2986 RMK AO2 RAB24 SLP115
 P0000 T01060100 $=
PABL 161556Z AUTO 21012KT 10SM OVC015 06/04 A2986 RMK AO2 SLP115 T00610039=
PABR 161553Z 25010KT 10SM OVC012 02/01 A2969 RMK AO2 SLP055 T00170011=
PABT 161553Z VRB06KT 10SM FEW003 BKN080 BKN095 12/08 A2971 RMK AO2 SLP068
 T01170078=
PABV 161556Z AUTO 04003KT 10SM BKN085 11/09 A2987 RMK AO2 SLP123 T01110089 PNO
 $=
PACD 161553Z 27013KT 3SM -RA BR BKN007 OVC011 08/07 A3017 RMK AO2 RAB1454
 SLP217 P0000 T00780072=
PACV 161553Z 00000KT 10SM FEW014 SCT080 SCT120 11/09 A2993 RMK AO2 SLP134
 T01060089=
PACZ 161616Z AUTO 05005KT 10SM FEW003 OVC014 09/08 A2992 RMK AO2 SLP136=
PADE 161553Z AUTO 23014KT 10SM OVC022 07/05 A2984 RMK AO2 SLP105 T00670050 TSNO
 PNO $=
PADK 161556Z AUTO 15007KT 1 3/4SM -RA BR BKN010 BKN017 OVC048 08/07 A3021 RMK
 AO2 RAB09E19B42 CIG 007V013 SLP231 P0002 T00780067=
PADL 161556Z VRB06KT 10SM OVC065 09/07 A3001 RMK AO2 RAE22 SLP167 P0000
 T00890072=
PADQ 161553Z 30010KT 10SM BKN065 OVC120 13/08 A2995 RMK AO2 SLP142 T01330083=
PADU 161556Z 30005KT 10SM BKN016 BKN180 08/06 A3025 RMK AO2 SLP247 T00780056=
PAED 161556Z AUTO 22006KT 10SM FEW060 SCT080 12/12 A2986 RMK AO2 SLP107
 T01230120 $=
PAEG 161553Z AUTO 00000KT 10SM OVC045 12/11 A2973 RMK AO2 SLP067 T01170111 TSNO=
PAEH 161554Z AUTO 27009KT 220V290 10SM OVC004 08/07 A3006 RMK AO2 SLP184=
PAEI 161541Z AUTO 23006KT 10SM FEW015 SCT060 OVC075 13/10 A2981 RMK AO2 SLP099
 $=
PAEM 161556Z AUTO 24003KT 10SM OVC019 11/09 A2993 RMK AO2 SLP194 T01060089=
PAEN 161553Z 19003KT 10SM BKN100 13/08 A2987 RMK AO2 SLP115 T01330078=
PAFA 161553Z 24008KT 10SM SCT060 BKN080 BKN200 12/10 A2980 RMK AO2 SLP097
 T01220100=
PAFB 161558Z 24005KT 10SM SCT013 OVC065 12/10 A2981 RMK AO2A SLP097 VIRGA NW
 T01230095=
PAFE 161556Z AUTO 10007KT 10SM SCT013 BKN019 OVC046 11/10 A3004 RMK AO2 RAE14
 SLP185 P0000 T01110100=
PAFM 161556Z AUTO 14005KT 5SM -RA BR OVC004 09/08 A2975 RMK AO2 SLP087 P0002
 T00890083=
PAGA 161556Z AUTO 24008KT 10SM BKN007 OVC044 09/09 A2985 RMK AO2 RAE25 SLP108
 P0001 T00940089=
PAGK 161553Z AUTO 16009KT 10SM SCT048 BKN070 BKN100 09/08 A2989 RMK SLP126
 T00890078 TSNO $ VIA AUTODIAL=
PAGM 161556Z AUTO 12004KT 10SM OVC050 07/05 A2996 RMK AO2 SLP151 T00720050=
PAGS 161556Z AUTO 12006KT 10SM SCT029 BKN042 OVC050 11/10 A3000 RMK AO2 RAE13
 SLP159 P0000 T01110100=
PAGY 161553Z AUTO 20015G22KT 10SM OVC110 12/07 A2993 RMK AO2 SLP134 T01220072
 TSNO=
PAHN 161554Z AUTO 10007KT 10SM OVC013 12/09 A2994 RMK AO2 SLP142 T01170089 TSNO=
PAHO 161553Z 22008KT 10SM CLR 12/09 A2992 RMK AO2 SLP133 T01220094=
PAHP 161556Z AUTO 32005KT 9SM SCT008 BKN017 10/09 A2995 RMK AO2 SLP178
 T01000089=
PAHY 161556Z AUTO 13010KT 7SM -RA BKN011 BKN016 OVC021 13/12 A3008 RMK AO2
 RAB15 SLP286 P0000 T01330122 $=
PAII 161556Z AUTO 27011KT 10SM OVC017 09/07 A3007 RMK AO2 SLP185 T00940067=
PAIL 161553Z 24005KT 10SM -RA OVC055 11/10 A2997 RMK AO2 RAB00 SLP150 P0000
 T01060100=
PAIM 161609Z AUTO 27005KT 10SM FEW018 FEW033 BKN041 BKN100 10/07 A2977 RMK AO2
 SLP080=
PAIN 161556Z AUTO 10SM OVC041 09/07 A2986 RMK AO2 SLP127 T00890067 $=
PAJC 161557Z AUTO 25008KT 10SM BKN026 OVC035 11/06 A3012 RMK AO2 SLP201
 T01060056=
PAJN 161553Z 00000KT 3SM -RA BR FEW003 BKN032 OVC043 11/11 A2999 RMK SLP154
 P0010 T01060106 VIA AUTODIAL=
PAKK 161556Z AUTO 00000KT 10SM OVC006 07/06 A2983 RMK AO2 SLP116 T00670056 PNO
 $=
PAKN 161554Z AUTO 23009KT 10SM FEW023 SCT085 OVC110 11/07 A2999 RMK AO2 SLP156
 T01060072 TSNO=
PAKP 161556Z AUTO 02003KT 5SM -RA BR SCT019 BKN024 OVC048 08/07 A2967 RMK AO2
 SLP068 P0006 T00780072=
PAKT 161553Z 13012KT 3SM -RA BR SCT005 BKN013 OVC018 13/12 A3011 RMK AO2
 RAE02B37 SLP195 HARBOR WIND 11013KT VIS 2V4 P0000 T01330122=
PAKU 161545Z 31021KT 7SM R24/P6000FT OVC004 05/05 A2966=
PAKV 161553Z AUTO 00000KT 10SM OVC050 10/09 A2987 RMK SLP115 T01000089 TSNO VIA
 AUTODIAL=
PAKW 161553Z AUTO 21006KT 3SM -RA BR BKN007 OVC013 13/13 A3005 RMK AO2 SLP174
 P0014 T01330133 TSNO=
PALH 161553Z 34004KT 10SM SCT065 OVC080 14/10 A2987 RMK AO2 SLP116 T01440100=
PAMC 161553Z AUTO 20004KT 10SM -RA BKN048 OVC055 10/08 A2990 RMK AO2 RAB42
 SLP129 P0000 T01000083 TSNO $=
PAMD 161551Z AUTO 02005KT 10SM CLR 12/09 A2993 RMK AO2 SLP126 T01170094=
PAMH 161556Z AUTO VRB04KT 10SM BKN007 OVC080 11/09 A2986 RMK AO2 SLP868
 T01060094=
PAMM 161556Z AUTO VRB05KT 6SM BR OVC011 14/12 A3012 RMK AO2 RAE05 SLP192 P0000
 T01390117=
PAMR 161553Z 31005KT 10SM FEW060 SCT080 13/11 A2986 RMK AO2 SLP112 T01280111=
PANC 161553Z 17007KT 10SM FEW050 SCT070 SCT090 BKN150 14/10 A2986 RMK AO2
 SLP112 T01390100=
PANI 161556Z AUTO 23004KT 6SM -RA BR OVC005 09/08 A2994 RMK AO2 SLP107 P0000
 T00890083=
PANN 161553Z AUTO 25004KT 10SM OVC060 13/11 A2982 RMK AO2 RAE05 SLP102 P0000
 T01280106 TSNO=
PANT 161553Z AUTO 16006KT 7SM OVC011 13/13 A3011 RMK SLP198 T01330128 TSNO VIA
 AUTODIAL=
PANV 161556Z AUTO 27004KT 10SM OVC003 09/08 A2987 RMK AO2 SLP140 T00890083=
PAOH 161556Z AUTO 00000KT 10SM SCT004 BKN038 OVC060 11/10 A2999 RMK AO2 RAE01
 SLP156 P0000 T01060100=
PAOM 161553Z 00000KT 10SM BKN090 07/04 A2987 RMK AO2 SLP116 T00670044=
PAOR 161553Z AUTO 00000KT 10SM BKN022 BKN060 11/09 A2981 RMK AO2 SLP099
 T01060089 TSNO=
PAOT 161553Z 31022KT 10SM SCT020 BKN150 08/04 A2980 RMK AO2 PK WND 31030/1505
 SLP090 T00830044=
PAPB 161553Z AUTO 28011KT 10SM OVC006 07/07 A3014 RMK AO2 SLP196 T00720072 TSNO=
PAPG 161556Z 21005KT 8SM FEW028 BKN034 OVC050 12/11 A3005 RMK AO2 RAE26 SLP178
 P0000 T01220106=
PAPH 161556Z AUTO 26009KT 5SM -RA BR SCT009 OVC020 08/08 A3013 RMK AO2
 RAB24E40B56 SLP205 P0000 T00830078=
PAQT 161553Z AUTO 30013KT 10SM OVC010 05/03 A2971 RMK AO2 CIG 008V013 SLP060
 T00500033 TSNO $=
PARC 161556Z AUTO 00000KT 10SM CLR 12/08 A2959 RMK AO2 SLP040 T01220078=
PASA 161556Z AUTO 08005KT 4SM BR OVC001 04/04 A2997 RMK AO2 SLP150 T00440044=
PASC 161553Z 29017G26KT 10SM SCT005 OVC011 08/07 A2963 RMK AO2 PK WND
 30026/1544 SLP034 SCT V BKN T00780067 PNO $=
PASH 161558Z 30012KT 9SM OVC012 06/04 A2991 RMK VIA PHONE=
PASI 161553Z 22007KT 5SM -RA BR SCT007 OVC024 12/11 A3001 RMK AO2 SLP161 P0002
 T01170111=
PASK 161556Z AUTO 27014G18KT 10SM OVC028 08/06 A2979 RMK AO2 SLP085 T00830061 $=
PASL 161559Z AUTO 00000KT 10SM -RA SCT007 SCT015 OVC024 09/08 A2997 RMK AO2
 P0001=
PASM 161602Z AUTO 28004KT 8SM BKN004 OVC008 09/09 A2995 RMK AO2=
PASN 161553Z AUTO 27011KT 9SM BKN005 OVC010 07/07 A3011 RMK SLP197 T00720072
 TSNO VIA AUTODIAL=
PASO 161553Z AUTO VRB06KT 10SM CLR 13/07 A2992 RMK AO2 SLP130 T01330072 TSNO=
PASX 161556Z AUTO 10003KT 10SM OVC100 13/09 A2989 RMK AO2 SLP129 T01280089=
PASY 161558Z 16007KT 7/8SM -DZ BR VV001 08/07 A2990 RMK AO2A SLP129 WND DATA
 ESTMD P0001 T00760073 RVRNO $=
PATA 161552Z VRB05KT 10SM OVC017 12/09 A2981 RMK AO2 SLP097 T01170089 $=
PATG 161603Z AUTO 23007KT 10SM OVC010 09/08 A3005 RMK AO2 CIG 008V014=
PATK 161553Z 00000KT 7SM BR SCT004 BKN075 BKN090 13/11 A2987 RMK AO2 SLP116 VIS
 E 2 T01280111=
PATO 161553Z AUTO VRB06KT 10SM OVC080 10/07 A2990 RMK AO2 SLP124 T01000072 TSNO=
PAUN 161556Z AUTO 09003KT 10SM SCT022 OVC035 11/10 A2987 RMK AO2 RAE14 SLP118
 P0001 T01060100=
PAVD 161551Z 00000KT 15SM FEW015 BKN045 OVC065 11/07 A2993=
PAVL 161553Z AUTO 36007KT 7SM BKN028 OVC037 08/04 A2982 RMK AO2 SLP096
 T00780044 TSNO=
PAWD 161553Z AUTO 00000KT 10SM SCT010 11/10 A2990 RMK AO2 SLP126 T01110100 TSNO=
PAWG 161556Z 00000KT 2SM -RA BR SCT005 BKN020 OVC040 13/12 A3006 RMK AO2 VIS 1
 1/2V3 SLP180 T01280122=
PAWI 161553Z AUTO 29012KT 2SM -RA BR FEW005 OVC010 03/02 A2971 RMK AO2 VIS 1
 1/2V4 RAB45 SLP063 P0000 T00330022 TSNO=
PAWN 161556Z AUTO 32006KT 10SM CLR 04/02 A2981 RMK AO2 SLP111 T00440022 $=
PAWS 161556Z AUTO 06004KT 10SM OVC080 13/09 A2988 RMK AO2 SLP133 T01280089=
PAYA 161553Z AUTO 09006KT 8SM BKN020 OVC027 11/10 A2991 RMK AO2 SLP129
 T01110100 TSNO=
PAZK 161556Z AUTO 21010KT 10SM FEW003 08/05 A2986 RMK AO2 SLP131 T00780050=